Terminal Aerodrome Forecast
Issued by NWS Cleveland, OH

Home | Current Version | Previous Version | Graphics & Text | Print | Product List | Glossary On
Versions: 1 2 3 4 5 6 7 8 9 10 11 12 13 14 15 16 17 18 19 20 21 22 23 24 25
000
FTUS41 KCLE 302000 AAA
TAFERI
TAF AMD
KERI 302000Z 3020/3118 27011KT P6SM SCT030
     FM310000 23004KT P6SM SCT040
     FM310600 20004KT P6SM BKN040
      TEMPO 3108/3112 5SM -SHRA BKN030
     FM311400 25008KT P6SM BKN040=

USA.gov is the U.S. government's official web portal to all federal, state and local government web resources and services.